DLH8PL EDDM-EDDH
Flight info
| Callsign | DLH8PL |
|---|---|
| Flight time | N/A |
| Altitude | 34000 |
| Route | INPUD3Q/08L INPUD Y102 UPALA M726 NARUS DCT ABGUS DCT DIRBO/N0402F230 T902 RARUP RARUP6A |
| Aircraft | A320/M-SDE3FGHIRWY/LB1 |
Departure
| Time | 2026-04-30 17:41 |
|---|---|
| Airport | Munich Airport (EDDM) |
Arrival
| Time | N/A |
|---|---|
| Airport | Hamburg Helmut Schmidt Airport (EDDH) |
| Time | Latitude | Longitude | Altitude | Speed | Heading |
|---|---|---|---|---|---|
| 2026-04-30 17:39 | 48.42732 | 11.85229 | 5529 ft | 281 kts | 310° |
| 2026-04-30 17:41 | 48.55752 | 11.70921 | 11582 ft | 339 kts | 336° |
| 2026-04-30 17:42 | 48.60050 | 11.67778 | 13077 ft | 347 kts | 336° |
| 2026-04-30 17:42 | 48.66657 | 11.62918 | 15281 ft | 356 kts | 337° |
| 2026-04-30 17:43 | 48.71157 | 11.59616 | 16651 ft | 362 kts | 338° |
| 2026-04-30 17:44 | 48.78038 | 11.54534 | 18619 ft | 371 kts | 338° |
| 2026-04-30 17:44 | 48.85038 | 11.49336 | 20308 ft | 379 kts | 338° |
| 2026-04-30 17:46 | 48.97056 | 11.40447 | 23024 ft | 389 kts | 341° |
| 2026-04-30 17:47 | 49.07651 | 11.38419 | 24365 ft | 386 kts | 359° |
| 2026-04-30 17:48 | 49.18312 | 11.37259 | 25309 ft | 390 kts | 359° |
| 2026-04-30 17:48 | 49.26479 | 11.36334 | 26044 ft | 394 kts | 360° |
| 2026-04-30 17:49 | 49.37500 | 11.35087 | 27048 ft | 400 kts | 0° |
| 2026-04-30 17:50 | 49.48635 | 11.33840 | 28079 ft | 406 kts | 0° |
| 2026-04-30 17:51 | 49.57126 | 11.32864 | 28884 ft | 410 kts | 0° |
| 2026-04-30 17:52 | 49.65708 | 11.31876 | 29707 ft | 415 kts | 1° |
| 2026-04-30 17:53 | 49.80244 | 11.30189 | 31031 ft | 422 kts | 1° |
| 2026-04-30 17:54 | 49.91938 | 11.28861 | 32037 ft | 420 kts | 1° |
| 2026-04-30 17:55 | 50.03566 | 11.27503 | 33058 ft | 418 kts | 0° |
| 2026-04-30 17:56 | 50.15090 | 11.26164 | 34123 ft | 415 kts | 0° |
| 2026-04-30 17:57 | 50.23698 | 11.25154 | 34414 ft | 412 kts | 360° |
| 2026-04-30 17:58 | 50.32259 | 11.24155 | 34408 ft | 411 kts | 0° |
| 2026-04-30 18:00 | 50.55109 | 11.21435 | 34405 ft | 412 kts | 360° |
| 2026-04-30 18:01 | 50.69408 | 11.19729 | 34405 ft | 413 kts | 360° |
| 2026-04-30 18:02 | 50.86568 | 11.17677 | 34403 ft | 414 kts | 359° |
| 2026-04-30 18:04 | 51.03809 | 11.15593 | 34406 ft | 414 kts | 359° |
| 2026-04-30 18:06 | 51.26830 | 11.12783 | 34424 ft | 415 kts | 359° |
| 2026-04-30 18:08 | 51.47019 | 11.10283 | 34416 ft | 416 kts | 359° |
| 2026-04-30 18:10 | 51.70165 | 11.07424 | 34416 ft | 418 kts | 358° |
| 2026-04-30 18:11 | 51.81795 | 11.05956 | 33493 ft | 421 kts | 358° |
| 2026-04-30 18:11 | 51.90573 | 11.04706 | 32697 ft | 424 kts | 356° |
| 2026-04-30 18:12 | 51.99330 | 11.02727 | 31918 ft | 427 kts | 355° |
| 2026-04-30 18:13 | 52.05213 | 11.01376 | 31413 ft | 428 kts | 355° |
| 2026-04-30 18:13 | 52.13090 | 10.99694 | 30753 ft | 425 kts | 355° |
| 2026-04-30 18:14 | 52.19866 | 10.98266 | 30129 ft | 421 kts | 355° |
| 2026-04-30 18:15 | 52.28516 | 10.96397 | 29278 ft | 416 kts | 355° |
| 2026-04-30 18:15 | 52.37059 | 10.94534 | 28455 ft | 410 kts | 355° |
| 2026-04-30 18:16 | 52.42702 | 10.93313 | 27915 ft | 407 kts | 355° |
| 2026-04-30 18:16 | 52.48299 | 10.92096 | 27393 ft | 404 kts | 355° |
| 2026-04-30 18:17 | 52.51079 | 10.91486 | 27131 ft | 403 kts | 355° |
| 2026-04-30 18:17 | 52.53851 | 10.90877 | 26872 ft | 400 kts | 355° |
| 2026-04-30 18:17 | 52.59322 | 10.89678 | 25939 ft | 393 kts | 355° |
| 2026-04-30 18:18 | 52.62025 | 10.89083 | 25350 ft | 390 kts | 355° |
| 2026-04-30 18:18 | 52.64704 | 10.88492 | 24776 ft | 387 kts | 356° |
| 2026-04-30 18:18 | 52.67363 | 10.87904 | 24205 ft | 384 kts | 356° |
| 2026-04-30 18:18 | 52.70001 | 10.87325 | 23598 ft | 381 kts | 356° |
| 2026-04-30 18:19 | 52.72615 | 10.86753 | 22970 ft | 378 kts | 356° |
| 2026-04-30 18:19 | 52.75217 | 10.86183 | 22361 ft | 376 kts | 356° |
| 2026-04-30 18:19 | 52.77800 | 10.85613 | 21798 ft | 373 kts | 356° |
| 2026-04-30 18:19 | 52.80364 | 10.85043 | 21230 ft | 371 kts | 356° |
| 2026-04-30 18:20 | 52.82915 | 10.84473 | 20679 ft | 369 kts | 356° |
| 2026-04-30 18:20 | 52.85454 | 10.83920 | 20145 ft | 367 kts | 357° |
| 2026-04-30 18:20 | 52.87979 | 10.83402 | 19629 ft | 365 kts | 357° |